createdAt,value
2024-04-24T00:01:55.842Z,530.80
2024-04-24T00:04:25.097Z,556.78
2024-04-24T00:06:52.919Z,367.65
2024-04-24T00:09:20.266Z,367.15
2024-04-24T00:11:47.699Z,379.90
2024-04-24T00:14:15.160Z,390.83
2024-04-24T00:16:42.633Z,652.07
2024-04-24T00:19:10.026Z,298.70
2024-04-24T00:21:37.414Z,264.70
2024-04-24T00:24:04.923Z,298.23
2024-04-24T00:26:34.019Z,275.67
2024-04-24T00:29:02.145Z,208.73
2024-04-24T00:31:29.510Z,233.38
2024-04-24T00:33:56.911Z,231.65
2024-04-24T00:36:27.883Z,153.15
2024-04-24T00:38:55.322Z,62.80
2024-04-24T00:41:22.791Z,185.57
2024-04-24T00:43:49.892Z,231.27
2024-04-24T00:46:18.233Z,227.27
2024-04-24T00:48:45.804Z,164.07
2024-04-24T00:51:13.868Z,197.38
2024-04-24T00:53:41.357Z,204.00
2024-04-24T00:56:08.898Z,151.57
2024-04-24T00:58:38.789Z,169.55
2024-04-24T01:01:10.834Z,186.70
2024-04-24T01:03:38.615Z,178.23
2024-04-24T01:06:06.135Z,231.03
2024-04-24T01:08:33.373Z,219.53
2024-04-24T01:11:01.358Z,185.63
2024-04-24T01:13:28.832Z,259.77
2024-04-24T01:15:57.937Z,217.63
2024-04-24T01:18:27.462Z,192.02
2024-04-24T01:20:57.148Z,189.48
2024-04-24T01:23:50.668Z,251.75
2024-04-24T01:26:43.013Z,259.83
2024-04-24T01:29:10.125Z,323.10
2024-04-24T01:31:37.147Z,273.33
2024-04-24T01:34:04.571Z,359.83
2024-04-24T01:36:32.046Z,259.23
2024-04-24T01:38:59.504Z,332.55
2024-04-24T01:41:26.998Z,314.83
2024-04-24T01:43:54.461Z,321.27
2024-04-24T01:46:21.869Z,285.40
2024-04-24T01:48:49.321Z,303.63
2024-04-24T01:51:16.892Z,160.37
2024-04-24T01:53:44.280Z,220.40
2024-04-24T01:56:12.712Z,185.23
2024-04-24T01:58:40.144Z,193.45
2024-04-24T02:01:07.508Z,156.50
2024-04-24T02:03:34.983Z,157.50
2024-04-24T02:06:02.615Z,134.32
2024-04-24T02:08:29.957Z,183.10
2024-04-24T02:10:57.332Z,147.35
2024-04-24T02:13:24.670Z,146.02
2024-04-24T02:15:52.809Z,17.85
2024-04-24T02:18:20.372Z,13.30
2024-04-24T02:20:47.842Z,11.90
2024-04-24T02:23:21.554Z,78.80
2024-04-24T02:25:49.992Z,159.55
2024-04-24T02:28:17.592Z,132.57
2024-04-24T02:30:45.715Z,119.35
2024-04-24T02:33:13.036Z,45.80
2024-04-24T02:35:40.576Z,125.15
2024-04-24T02:38:09.144Z,80.38
2024-04-24T02:40:36.543Z,135.75
2024-04-24T02:43:04.212Z,118.63
2024-04-24T02:45:31.629Z,86.75
2024-04-24T02:47:59.084Z,108.85
2024-04-24T02:50:26.733Z,125.07
2024-04-24T02:52:54.203Z,120.85
2024-04-24T02:55:21.975Z,87.15
2024-04-24T02:57:49.335Z,128.95
2024-04-24T03:00:16.983Z,123.53
2024-04-24T03:02:44.945Z,93.00
2024-04-24T03:05:12.375Z,80.27
2024-04-24T03:07:40.358Z,31.10
2024-04-24T03:10:07.908Z,23.08
2024-04-24T03:12:35.290Z,106.40
2024-04-24T03:15:02.823Z,122.07
2024-04-24T03:17:30.464Z,109.25
2024-04-24T03:19:58.066Z,119.97
2024-04-24T03:22:25.456Z,94.70
2024-04-24T03:24:52.764Z,54.03
2024-04-24T03:27:20.256Z,37.83
2024-04-24T03:29:57.550Z,38.28
2024-04-24T03:32:27.392Z,41.57
2024-04-24T03:34:54.955Z,92.00
2024-04-24T03:37:22.394Z,27.77
2024-04-24T03:39:49.809Z,79.28
2024-04-24T03:42:17.187Z,93.07
2024-04-24T03:44:44.542Z,83.63
2024-04-24T03:47:12.038Z,92.07
2024-04-24T03:49:39.550Z,78.00
2024-04-24T03:52:07.051Z,73.30
2024-04-24T03:54:34.467Z,85.00
2024-04-24T03:57:01.830Z,78.30
2024-04-24T03:59:29.322Z,80.80
2024-04-24T04:01:56.838Z,49.33
2024-04-24T04:04:24.345Z,13.25
2024-04-24T04:06:51.866Z,84.30
2024-04-24T04:09:19.228Z,77.93
2024-04-24T04:11:46.642Z,52.25
2024-04-24T04:14:14.289Z,47.08
2024-04-24T04:16:41.706Z,72.67
2024-04-24T04:19:09.145Z,91.95
2024-04-24T04:21:36.581Z,79.50
2024-04-24T04:24:04.004Z,91.10
2024-04-24T04:26:31.707Z,81.85
2024-04-24T04:28:58.688Z,42.67
2024-04-24T04:31:26.313Z,58.75
2024-04-24T04:33:53.946Z,54.27
2024-04-24T04:36:21.476Z,32.03
2024-04-24T04:38:48.481Z,28.05
2024-04-24T04:41:15.871Z,11.13
2024-04-24T04:43:43.293Z,7.88
2024-04-24T04:46:10.644Z,12.25
2024-04-24T04:48:38.003Z,21.67
2024-04-24T04:51:06.416Z,34.47
2024-04-24T04:53:33.872Z,23.52
2024-04-24T04:56:00.838Z,42.70
2024-04-24T04:58:28.223Z,39.22
2024-04-24T05:00:55.720Z,38.40
2024-04-24T05:03:23.380Z,23.42
2024-04-24T05:05:50.471Z,9.77
2024-04-24T05:08:17.522Z,35.17
2024-04-24T05:10:44.909Z,18.83
2024-04-24T05:13:13.079Z,30.45
2024-04-24T05:15:40.549Z,23.23
2024-04-24T05:18:10.834Z,41.72
2024-04-24T05:20:38.616Z,35.00
2024-04-24T05:23:06.831Z,25.95
2024-04-24T05:25:34.090Z,16.60
2024-04-24T05:28:20.589Z,8.52
2024-04-24T05:30:48.608Z,12.95
2024-04-24T05:33:16.081Z,19.98
2024-04-24T05:35:46.716Z,42.45
2024-04-24T05:38:14.264Z,29.00
2024-04-24T05:40:41.664Z,33.15
2024-04-24T05:43:10.374Z,45.67
2024-04-24T05:45:38.793Z,34.58
2024-04-24T05:48:09.535Z,21.05
2024-04-24T05:50:37.259Z,6.57
2024-04-24T05:53:04.714Z,48.63
2024-04-24T05:55:32.221Z,37.03
2024-04-24T05:57:59.663Z,38.15
2024-04-24T06:00:27.030Z,23.38
2024-04-24T06:02:55.336Z,33.63
2024-04-24T06:05:22.840Z,23.17
2024-04-24T06:07:50.490Z,35.97
2024-04-24T06:10:17.975Z,17.77
2024-04-24T06:12:45.516Z,26.92
2024-04-24T06:15:12.918Z,18.77
2024-04-24T06:17:40.546Z,26.83
2024-04-24T06:20:08.684Z,28.23
2024-04-24T06:22:36.159Z,29.45
2024-04-24T06:25:03.603Z,31.00
2024-04-24T06:27:31.033Z,22.85
2024-04-24T06:29:59.221Z,26.27
2024-04-24T06:32:26.861Z,34.38
2024-04-24T06:34:55.165Z,10.40
2024-04-24T06:37:22.611Z,30.65
2024-04-24T06:39:50.009Z,33.20
2024-04-24T06:42:17.356Z,16.80
2024-04-24T06:44:45.078Z,20.58
2024-04-24T06:47:12.617Z,17.02
2024-04-24T06:49:40.361Z,59.55
2024-04-24T06:52:08.330Z,17.98
2024-04-24T06:54:35.725Z,42.17
2024-04-24T06:57:03.321Z,26.02
2024-04-24T06:59:30.771Z,28.25
2024-04-24T07:01:58.229Z,10.95
2024-04-24T07:04:25.853Z,34.17
2024-04-24T07:06:53.369Z,25.70
2024-04-24T07:09:20.746Z,29.15
2024-04-24T07:11:49.045Z,26.50
2024-04-24T07:14:16.563Z,31.30
2024-04-24T07:16:44.043Z,46.30
2024-04-24T07:19:13.555Z,25.98
2024-04-24T07:21:42.036Z,36.13
2024-04-24T07:24:09.518Z,49.35
2024-04-24T07:26:37.182Z,20.80
2024-04-24T07:29:04.681Z,24.73
2024-04-24T07:31:32.388Z,45.00
2024-04-24T07:33:59.935Z,24.67
2024-04-24T07:36:27.495Z,25.65
2024-04-24T07:38:55.007Z,16.70
2024-04-24T07:41:22.466Z,13.35
2024-04-24T07:43:49.905Z,24.90
2024-04-24T07:46:17.298Z,36.00
2024-04-24T07:48:44.819Z,44.28
2024-04-24T07:51:11.911Z,55.97
2024-04-24T07:53:39.779Z,35.72
2024-04-24T07:56:07.671Z,37.88
2024-04-24T07:58:35.196Z,38.30
2024-04-24T08:01:02.735Z,45.53
2024-04-24T08:03:30.197Z,53.70
2024-04-24T08:05:57.671Z,31.83
2024-04-24T08:08:25.259Z,16.98
2024-04-24T08:10:52.995Z,21.42
2024-04-24T08:13:20.793Z,27.80
2024-04-24T08:15:48.326Z,20.42
2024-04-24T08:18:15.905Z,21.92
2024-04-24T08:20:43.351Z,14.13
2024-04-24T08:23:14.414Z,10.30
2024-04-24T08:25:43.755Z,12.48
2024-04-24T08:28:12.760Z,17.95
2024-04-24T08:30:42.683Z,21.55
2024-04-24T08:33:10.397Z,18.42
2024-04-24T08:35:37.931Z,7.38
2024-04-24T08:38:05.524Z,6.60
2024-04-24T08:40:33.118Z,9.25
2024-04-24T08:43:00.464Z,12.80
2024-04-24T08:45:28.852Z,17.07
2024-04-24T08:48:00.975Z,13.80
2024-04-24T08:50:28.609Z,21.95
2024-04-24T08:53:03.740Z,12.23
2024-04-24T08:55:33.865Z,5.63
2024-04-24T08:58:01.595Z,6.93
2024-04-24T09:00:30.650Z,6.07
2024-04-24T09:03:02.633Z,4.13
2024-04-24T09:05:32.825Z,8.10
2024-04-24T09:08:02.536Z,12.05
2024-04-24T09:10:30.089Z,14.70
2024-04-24T09:12:58.284Z,17.42
2024-04-24T09:15:29.025Z,15.20
2024-04-24T09:18:03.252Z,12.85
2024-04-24T09:20:34.635Z,20.08
2024-04-24T09:23:03.136Z,11.50
2024-04-24T09:25:30.609Z,11.85
2024-04-24T09:27:58.090Z,19.08
2024-04-24T09:30:28.747Z,14.68
2024-04-24T09:32:57.369Z,28.83
2024-04-24T09:35:25.328Z,28.73
2024-04-24T09:37:53.779Z,26.83
2024-04-24T09:40:21.286Z,23.80
2024-04-24T09:42:48.978Z,28.98
2024-04-24T09:45:19.675Z,28.05
2024-04-24T09:47:47.305Z,33.08
2024-04-24T09:50:15.015Z,20.65
2024-04-24T09:52:48.006Z,28.77
2024-04-24T09:55:16.101Z,26.65
2024-04-24T09:57:48.511Z,28.05
2024-04-24T10:00:16.309Z,19.77
2024-04-24T10:02:49.971Z,18.02
2024-04-24T10:05:21.797Z,16.48
2024-04-24T10:08:08.731Z,18.05
2024-04-24T10:10:48.558Z,14.77
2024-04-24T10:13:18.362Z,18.90
2024-04-24T10:15:49.572Z,17.83
2024-04-24T10:18:18.017Z,46.20
2024-04-24T10:20:46.347Z,32.50
2024-04-24T10:23:14.844Z,16.77
2024-04-24T10:25:42.945Z,24.05
2024-04-24T10:28:10.550Z,62.33
2024-04-24T10:30:38.949Z,27.98
2024-04-24T10:33:08.051Z,20.10
2024-04-24T10:35:37.832Z,14.68
2024-04-24T10:38:09.423Z,30.13
2024-04-24T10:40:38.000Z,28.87
2024-04-24T10:43:11.258Z,26.45
2024-04-24T10:45:42.753Z,31.43
2024-04-24T10:48:14.542Z,28.48
2024-04-24T10:50:43.183Z,31.85
2024-04-24T10:53:14.614Z,26.60
2024-04-24T10:56:00.429Z,24.88
2024-04-24T10:58:30.899Z,26.30
2024-04-24T11:01:07.377Z,10.25
2024-04-24T11:03:34.844Z,14.50
2024-04-24T11:06:13.338Z,15.33
2024-04-24T11:08:44.306Z,25.38
2024-04-24T11:11:11.862Z,19.98
2024-04-24T11:13:40.564Z,17.38
2024-04-24T11:16:10.899Z,14.37
2024-04-24T11:18:39.102Z,20.17
2024-04-24T11:21:06.300Z,17.27
2024-04-24T11:23:46.878Z,14.18
2024-04-24T11:26:14.298Z,34.15
2024-04-24T11:28:41.938Z,23.42
2024-04-24T11:31:11.180Z,20.52
2024-04-24T11:33:39.480Z,6.60
2024-04-24T11:36:07.101Z,8.95
2024-04-24T11:38:35.904Z,15.23
2024-04-24T11:41:03.411Z,15.30
2024-04-24T11:43:31.233Z,14.45
2024-04-24T11:45:58.683Z,6.72
2024-04-24T11:48:40.327Z,12.23
2024-04-24T11:51:11.665Z,8.00
2024-04-24T11:53:39.132Z,25.88
2024-04-24T11:56:08.296Z,25.17
2024-04-24T11:58:37.165Z,10.13
2024-04-24T12:01:06.957Z,24.20
2024-04-24T12:03:36.522Z,21.75
2024-04-24T12:06:05.307Z,14.52
2024-04-24T12:08:32.789Z,9.45
2024-04-24T12:11:01.092Z,15.48
2024-04-24T12:13:31.849Z,19.17
2024-04-24T12:16:00.239Z,16.35
2024-04-24T12:18:28.883Z,21.20
2024-04-24T12:20:58.413Z,17.10
2024-04-24T12:23:27.917Z,23.05
2024-04-24T12:25:57.544Z,13.00
2024-04-24T12:28:26.119Z,33.60
2024-04-24T12:30:53.632Z,19.97
2024-04-24T12:33:21.405Z,18.15
2024-04-24T12:35:48.890Z,19.42
2024-04-24T12:38:16.286Z,22.52
2024-04-24T12:40:43.764Z,15.60
2024-04-24T12:43:14.118Z,24.73
2024-04-24T12:45:42.080Z,22.08
2024-04-24T12:48:09.743Z,24.17
2024-04-24T12:50:37.471Z,11.75
2024-04-24T12:53:05.897Z,16.83
2024-04-24T12:55:33.270Z,21.75
2024-04-24T12:58:00.660Z,9.95
2024-04-24T13:00:28.215Z,14.50
2024-04-24T13:02:55.938Z,24.17
2024-04-24T13:05:26.682Z,19.77
2024-04-24T13:07:54.104Z,17.60
2024-04-24T13:10:21.521Z,19.15
2024-04-24T13:12:48.853Z,22.38
2024-04-24T13:15:16.104Z,17.73
2024-04-24T13:17:44.564Z,22.83
2024-04-24T13:20:12.221Z,22.45
2024-04-24T13:22:40.247Z,23.33
2024-04-24T13:25:07.752Z,22.30
2024-04-24T13:27:35.181Z,28.70
2024-04-24T13:30:03.096Z,33.55
2024-04-24T13:32:30.753Z,27.07
2024-04-24T13:34:58.299Z,34.38
2024-04-24T13:37:25.946Z,35.13
2024-04-24T13:39:52.942Z,33.65
2024-04-24T13:42:21.272Z,24.87
2024-04-24T13:44:48.794Z,25.55
2024-04-24T13:47:16.476Z,32.53
2024-04-24T13:49:47.697Z,32.03
2024-04-24T13:52:15.097Z,23.63
2024-04-24T13:54:42.497Z,11.17
2024-04-24T13:57:10.032Z,36.15
2024-04-24T13:59:39.495Z,16.90
2024-04-24T14:02:07.629Z,16.93
2024-04-24T14:04:35.121Z,19.27
2024-04-24T14:07:02.511Z,24.52
2024-04-24T14:09:29.948Z,31.27
2024-04-24T14:11:57.433Z,33.95
2024-04-24T14:14:25.065Z,36.15
2024-04-24T14:16:52.838Z,66.10
2024-04-24T14:19:20.278Z,99.82
2024-04-24T14:21:47.718Z,73.35
2024-04-24T14:24:15.161Z,51.03
2024-04-24T14:26:42.621Z,44.90
2024-04-24T14:29:14.370Z,37.78
2024-04-24T14:31:43.146Z,32.85
2024-04-24T14:34:11.702Z,46.93
2024-04-24T14:36:39.734Z,43.90
2024-04-24T14:39:06.801Z,54.63
2024-04-24T14:41:34.363Z,50.17
2024-04-24T14:44:01.902Z,35.28
2024-04-24T14:46:29.451Z,57.03
2024-04-24T14:49:01.598Z,49.22
2024-04-24T14:51:30.199Z,64.10
2024-04-24T14:54:02.755Z,45.47
2024-04-24T14:56:30.710Z,55.20
2024-04-24T14:58:58.392Z,22.33
2024-04-24T15:01:26.022Z,48.45
2024-04-24T15:03:53.489Z,51.63
2024-04-24T15:06:21.012Z,47.45
2024-04-24T15:08:48.518Z,29.50
2024-04-24T15:11:16.019Z,53.13
2024-04-24T15:13:43.724Z,54.67
2024-04-24T15:16:11.259Z,44.10
2024-04-24T15:18:38.331Z,40.42
2024-04-24T15:21:06.123Z,38.53
2024-04-24T15:23:33.285Z,48.20
2024-04-24T15:26:01.917Z,34.10
2024-04-24T15:28:29.416Z,51.60
2024-04-24T15:30:56.916Z,57.72
2024-04-24T15:33:24.678Z,51.20
2024-04-24T15:35:52.307Z,61.00
2024-04-24T15:38:20.836Z,56.08
2024-04-24T15:40:48.350Z,47.15
2024-04-24T15:43:15.686Z,42.53
2024-04-24T15:45:43.454Z,42.38
2024-04-24T15:48:11.107Z,52.10
2024-04-24T15:50:38.717Z,79.30
2024-04-24T15:53:06.166Z,51.33
2024-04-24T15:55:33.545Z,58.00
2024-04-24T15:58:00.914Z,79.30
2024-04-24T16:00:28.946Z,78.28
2024-04-24T16:02:56.385Z,76.40
2024-04-24T16:05:23.530Z,59.25
2024-04-24T16:07:50.984Z,79.25
2024-04-24T16:10:18.428Z,80.60
2024-04-24T16:12:45.794Z,97.97
2024-04-24T16:15:13.209Z,70.93
2024-04-24T16:17:43.519Z,76.40
2024-04-24T16:20:14.596Z,80.70
2024-04-24T16:22:42.075Z,82.85
2024-04-24T16:25:09.529Z,121.13
2024-04-24T16:27:40.407Z,108.07
2024-04-24T16:30:09.921Z,108.07
2024-04-24T16:32:38.404Z,94.78
2024-04-24T16:35:06.202Z,130.95
2024-04-24T16:37:33.661Z,124.00
2024-04-24T16:40:01.012Z,115.72
2024-04-24T16:42:28.432Z,111.90
2024-04-24T16:44:56.592Z,80.07
2024-04-24T16:47:24.516Z,106.13
2024-04-24T16:49:51.608Z,98.85
2024-04-24T16:52:27.644Z,95.88
2024-04-24T16:54:56.553Z,90.47
2024-04-24T16:57:24.005Z,111.72
2024-04-24T16:59:52.187Z,116.18
2024-04-24T17:02:19.621Z,108.55
2024-04-24T17:04:47.059Z,76.35
2024-04-24T17:07:16.912Z,52.20
2024-04-24T17:09:44.896Z,89.05
2024-04-24T17:12:12.982Z,69.25
2024-04-24T17:14:40.354Z,51.07
2024-04-24T17:17:10.774Z,78.10
2024-04-24T17:19:40.225Z,80.57
2024-04-24T17:22:08.810Z,70.23
2024-04-24T17:24:36.221Z,87.03
2024-04-24T17:27:03.742Z,69.53
2024-04-24T17:29:31.242Z,71.85
2024-04-24T17:31:58.783Z,57.42
2024-04-24T17:34:26.229Z,74.10
2024-04-24T17:36:54.486Z,73.90
2024-04-24T17:39:21.947Z,82.47
2024-04-24T17:41:50.324Z,82.03
2024-04-24T17:44:17.309Z,90.65
2024-04-24T17:46:44.765Z,51.72
2024-04-24T17:49:12.577Z,64.50
2024-04-24T17:51:40.073Z,59.80
2024-04-24T17:54:07.548Z,94.35
2024-04-24T17:56:36.465Z,89.50
2024-04-24T17:59:03.527Z,87.30
2024-04-24T18:01:30.962Z,83.03
2024-04-24T18:03:58.471Z,88.80
2024-04-24T18:06:25.929Z,97.28
2024-04-24T18:08:53.337Z,135.43
2024-04-24T18:11:21.301Z,168.38
2024-04-24T18:13:52.289Z,225.82
2024-04-24T18:16:19.715Z,216.20
2024-04-24T18:18:47.309Z,752.28
2024-04-24T18:21:14.845Z,595.95
2024-04-24T18:23:42.278Z,345.85
2024-04-24T18:26:09.701Z,580.00
2024-04-24T18:28:37.156Z,618.45
2024-04-24T18:31:05.684Z,540.80
2024-04-24T18:33:33.338Z,627.20
2024-04-24T18:36:01.103Z,192.70
2024-04-24T18:38:28.662Z,261.98
2024-04-24T18:40:56.261Z,197.35
2024-04-24T18:43:23.673Z,275.13
2024-04-24T18:45:51.027Z,256.38
2024-04-24T18:48:20.312Z,341.27
2024-04-24T18:50:47.922Z,264.80
2024-04-24T18:53:15.879Z,570.88
2024-04-24T18:55:43.287Z,832.75
2024-04-24T18:58:10.882Z,438.70
2024-04-24T19:00:38.437Z,311.73
2024-04-24T19:03:06.122Z,267.30
2024-04-24T19:05:33.599Z,741.92
2024-04-24T19:08:01.213Z,955.03
2024-04-24T19:10:28.669Z,839.25
2024-04-24T19:12:56.046Z,617.63
2024-04-24T19:15:23.519Z,416.65
2024-04-24T19:17:51.027Z,204.15
2024-04-24T19:20:18.512Z,210.55
2024-04-24T19:22:46.004Z,288.30
2024-04-24T19:25:13.484Z,340.83
2024-04-24T19:27:41.948Z,224.13
2024-04-24T19:30:10.412Z,186.43
2024-04-24T19:32:38.257Z,179.48
2024-04-24T19:35:05.810Z,163.02
2024-04-24T19:37:33.241Z,211.07
2024-04-24T19:40:00.682Z,203.10
2024-04-24T19:42:30.529Z,243.32
2024-04-24T19:44:59.720Z,211.30
2024-04-24T19:47:27.461Z,211.55
2024-04-24T19:49:54.938Z,193.90
2024-04-24T19:52:22.362Z,202.75
2024-04-24T19:54:49.759Z,205.45
2024-04-24T19:57:17.211Z,172.98
2024-04-24T19:59:44.847Z,225.40
2024-04-24T20:02:13.469Z,219.45
2024-04-24T20:04:41.951Z,192.10
2024-04-24T20:07:09.443Z,201.82
2024-04-24T20:09:37.670Z,212.93
2024-04-24T20:12:05.435Z,252.95
2024-04-24T20:14:37.811Z,202.95
2024-04-24T20:17:05.514Z,214.73
2024-04-24T20:19:34.349Z,217.75
2024-04-24T20:22:01.889Z,200.38
2024-04-24T20:24:29.297Z,209.77
2024-04-24T20:26:56.679Z,228.43
2024-04-24T20:29:24.989Z,209.60
2024-04-24T20:31:52.877Z,181.18
2024-04-24T20:34:20.307Z,209.68
2024-04-24T20:36:47.814Z,157.45
2024-04-24T20:39:15.749Z,229.90
2024-04-24T20:41:43.481Z,277.02
2024-04-24T20:44:10.995Z,306.40
2024-04-24T20:46:44.883Z,272.15
2024-04-24T20:49:12.410Z,262.70
2024-04-24T20:51:40.586Z,282.67
2024-04-24T20:54:08.928Z,174.23
2024-04-24T20:56:36.487Z,192.20
2024-04-24T20:59:06.339Z,254.43
2024-04-24T21:01:33.401Z,283.10
2024-04-24T21:04:00.804Z,277.55
2024-04-24T21:06:28.577Z,770.20
2024-04-24T21:08:55.557Z,583.95
2024-04-24T21:11:25.109Z,528.55
2024-04-24T21:13:58.663Z,630.40
2024-04-24T21:16:25.832Z,601.90
2024-04-24T21:18:53.626Z,685.10
2024-04-24T21:21:21.387Z,356.47
2024-04-24T21:23:51.603Z,574.10
2024-04-24T21:26:19.053Z,451.52
2024-04-24T21:28:46.427Z,165.63
2024-04-24T21:31:13.886Z,187.30
2024-04-24T21:33:41.330Z,155.85
2024-04-24T21:36:08.735Z,259.77
2024-04-24T21:38:36.637Z,156.98
2024-04-24T21:41:18.989Z,127.97
2024-04-24T21:43:46.543Z,82.32
2024-04-24T21:46:15.290Z,79.68
2024-04-24T21:48:42.970Z,72.43
2024-04-24T21:51:10.973Z,51.83
2024-04-24T21:53:41.551Z,39.95
2024-04-24T21:56:08.655Z,85.47
2024-04-24T21:58:35.647Z,57.28
2024-04-24T22:01:03.124Z,49.10
2024-04-24T22:03:33.416Z,45.93
2024-04-24T22:06:02.347Z,68.43
2024-04-24T22:08:31.540Z,48.38
2024-04-24T22:10:58.512Z,69.28
2024-04-24T22:13:25.500Z,54.33
2024-04-24T22:15:52.412Z,71.53
2024-04-24T22:18:20.100Z,64.85
2024-04-24T22:20:47.303Z,75.25
2024-04-24T22:23:14.709Z,85.10
2024-04-24T22:25:42.033Z,47.05
2024-04-24T22:28:09.003Z,67.23
2024-04-24T22:30:37.083Z,69.75
2024-04-24T22:33:04.414Z,72.63
2024-04-24T22:35:31.535Z,75.05
2024-04-24T22:37:59.196Z,58.65
2024-04-24T22:40:26.726Z,82.75
2024-04-24T22:42:54.029Z,20.83
2024-04-24T22:45:22.478Z,64.63
2024-04-24T22:47:49.978Z,55.38
2024-04-24T22:50:18.489Z,48.17
2024-04-24T22:52:45.544Z,57.95
2024-04-24T22:55:12.590Z,56.60
2024-04-24T22:57:39.613Z,29.55
2024-04-24T23:00:07.958Z,24.30
2024-04-24T23:02:38.039Z,75.53
2024-04-24T23:05:06.149Z,25.50
2024-04-24T23:07:33.687Z,52.75
2024-04-24T23:10:01.528Z,43.33
2024-04-24T23:12:28.463Z,44.00
2024-04-24T23:14:55.918Z,37.35
2024-04-24T23:17:23.239Z,54.00
2024-04-24T23:19:50.807Z,52.72
2024-04-24T23:22:19.091Z,55.60
2024-04-24T23:24:46.518Z,53.40
2024-04-24T23:27:13.557Z,58.30
2024-04-24T23:29:43.068Z,2.92
2024-04-24T23:32:10.571Z,24.35
2024-04-24T23:34:37.556Z,39.58
2024-04-24T23:37:04.929Z,23.17
2024-04-24T23:39:32.421Z,37.47
2024-04-24T23:41:59.821Z,60.50
2024-04-24T23:44:26.805Z,37.73
2024-04-24T23:46:54.312Z,53.97
2024-04-24T23:49:21.707Z,22.80
2024-04-24T23:51:48.659Z,73.43
2024-04-24T23:54:15.992Z,78.47
2024-04-24T23:56:43.649Z,22.25
2024-04-24T23:59:10.731Z,28.33
